createdAt,value
2022-11-03T00:01:36.216Z,99650.69
2022-11-03T00:04:04.111Z,99649.81
2022-11-03T00:06:32.265Z,99648.69
2022-11-03T00:09:01.253Z,99655.00
2022-11-03T00:11:29.135Z,99649.38
2022-11-03T00:13:58.829Z,99645.47
2022-11-03T00:16:26.712Z,99640.56
2022-11-03T00:18:55.377Z,99636.66
2022-11-03T00:21:23.727Z,99633.41
2022-11-03T00:23:51.950Z,99624.94
2022-11-03T00:26:21.920Z,99622.66
2022-11-03T00:28:51.165Z,99619.09
2022-11-03T00:31:22.682Z,99617.44
2022-11-03T00:33:51.189Z,99611.56
2022-11-03T00:36:20.773Z,99611.34
2022-11-03T00:38:48.903Z,99594.00
2022-11-03T00:41:21.378Z,99588.66
2022-11-03T00:43:50.121Z,99585.19
2022-11-03T00:46:18.661Z,99581.69
2022-11-03T00:48:48.217Z,99593.44
2022-11-03T00:51:17.654Z,99579.44
2022-11-03T00:53:47.582Z,99570.66
2022-11-03T00:56:17.161Z,99575.56
2022-11-03T00:58:45.665Z,99572.22
2022-11-03T01:01:15.593Z,99569.88
2022-11-03T01:04:05.919Z,99568.84
2022-11-03T01:06:50.591Z,99574.50
2022-11-03T01:09:19.524Z,99571.38
2022-11-03T01:12:01.932Z,99564.56
2022-11-03T01:14:32.208Z,99562.59
2022-11-03T01:17:00.386Z,99558.28
2022-11-03T01:19:28.205Z,99557.59
2022-11-03T01:21:57.683Z,99560.03
2022-11-03T01:24:25.498Z,99552.84
2022-11-03T01:26:53.369Z,99559.09
2022-11-03T01:29:21.517Z,99549.22
2022-11-03T01:31:49.424Z,99545.13
2022-11-03T01:34:18.894Z,99541.16
2022-11-03T01:36:47.849Z,99532.59
2022-11-03T01:39:18.791Z,99531.19
2022-11-03T01:41:49.356Z,99525.16
2022-11-03T01:44:46.283Z,99519.72
2022-11-03T01:47:20.848Z,99521.69
2022-11-03T01:49:52.130Z,99517.34
2022-11-03T01:52:25.890Z,99515.22
2022-11-03T01:55:01.236Z,99503.63
2022-11-03T01:57:37.488Z,99505.31
2022-11-03T02:00:07.300Z,99505.00
2022-11-03T02:02:41.827Z,99506.91
2022-11-03T02:05:13.904Z,99489.53
2022-11-03T02:07:48.214Z,99495.59
2022-11-03T02:10:18.035Z,99487.41
2022-11-03T02:12:46.867Z,99481.84
2022-11-03T02:15:17.210Z,99474.06
2022-11-03T02:17:47.799Z,99474.09
2022-11-03T02:20:18.561Z,99466.56
2022-11-03T02:23:02.038Z,99469.44
2022-11-03T02:25:41.444Z,99470.94
2022-11-03T02:28:09.688Z,99465.84
2022-11-03T02:30:44.916Z,99457.94
2022-11-03T02:33:25.693Z,99454.81
2022-11-03T02:35:58.788Z,99452.41
2022-11-03T02:38:30.054Z,99446.84
2022-11-03T02:41:02.091Z,99451.63
2022-11-03T02:43:30.699Z,99438.13
2022-11-03T02:45:58.952Z,99435.38
2022-11-03T02:48:26.856Z,99427.94
2022-11-03T02:50:55.771Z,99427.47
2022-11-03T02:53:23.559Z,99419.66
2022-11-03T02:55:59.256Z,99432.56
2022-11-03T02:58:34.176Z,99427.53
2022-11-03T03:01:11.976Z,99422.38
2022-11-03T03:03:43.527Z,99423.34
2022-11-03T03:06:18.103Z,99425.84
2022-11-03T03:08:49.327Z,99418.66
2022-11-03T03:11:17.399Z,99414.81
2022-11-03T03:13:46.879Z,99408.66
2022-11-03T03:16:21.417Z,99412.63
2022-11-03T03:18:57.764Z,99405.91
2022-11-03T03:21:32.605Z,99398.03
2022-11-03T03:24:04.330Z,99391.84
2022-11-03T03:26:36.540Z,99389.34
2022-11-03T03:29:10.744Z,99393.63
2022-11-03T03:31:41.945Z,99393.31
2022-11-03T03:34:31.487Z,99396.16
2022-11-03T03:37:01.293Z,99390.91
2022-11-03T03:39:33.390Z,99395.50
2022-11-03T03:42:03.949Z,99391.66
2022-11-03T03:44:35.266Z,99383.81
2022-11-03T03:47:09.127Z,99378.63
2022-11-03T03:49:36.991Z,99377.41
2022-11-03T03:52:05.387Z,99371.56
2022-11-03T03:54:33.169Z,99366.31
2022-11-03T03:57:03.939Z,99370.94
2022-11-03T03:59:33.221Z,99360.72
2022-11-03T04:02:01.738Z,99358.47
2022-11-03T04:04:30.028Z,99345.06
2022-11-03T04:07:11.763Z,99349.81
2022-11-03T04:09:39.546Z,99353.00
2022-11-03T04:12:26.751Z,99342.41
2022-11-03T04:15:13.518Z,99342.03
2022-11-03T04:18:02.300Z,99351.38
2022-11-03T04:20:48.262Z,99349.03
2022-11-03T04:23:16.244Z,99354.09
2022-11-03T04:25:49.095Z,99338.22
2022-11-03T04:28:17.146Z,99337.00
2022-11-03T04:30:47.451Z,99333.50
2022-11-03T04:33:17.227Z,99328.75
2022-11-03T04:35:45.461Z,99319.69
2022-11-03T04:38:23.209Z,99321.59
2022-11-03T04:40:56.894Z,99327.78
2022-11-03T04:43:31.074Z,99316.75
2022-11-03T04:46:00.395Z,99321.19
2022-11-03T04:48:30.028Z,99311.25
2022-11-03T04:51:01.460Z,99308.00
2022-11-03T04:53:32.957Z,99307.25
2022-11-03T04:56:06.994Z,99293.47
2022-11-03T04:58:39.773Z,99300.22
2022-11-03T05:01:13.605Z,99294.59
2022-11-03T05:03:43.274Z,99293.63
2022-11-03T05:06:15.362Z,99287.19
2022-11-03T05:08:45.271Z,99284.47
2022-11-03T05:11:21.341Z,99278.63
2022-11-03T05:13:49.773Z,99275.03
2022-11-03T05:16:19.479Z,99270.28
2022-11-03T05:18:50.669Z,99270.94
2022-11-03T05:21:20.093Z,99267.09
2022-11-03T05:23:50.783Z,99261.59
2022-11-03T05:26:21.525Z,99254.91
2022-11-03T05:28:53.550Z,99258.41
2022-11-03T05:31:26.771Z,99258.03
2022-11-03T05:33:57.893Z,99258.69
2022-11-03T05:36:28.346Z,99251.25
2022-11-03T05:38:57.834Z,99247.69
2022-11-03T05:41:27.293Z,99251.59
2022-11-03T05:43:59.999Z,99250.06
2022-11-03T05:46:32.396Z,99244.91
2022-11-03T05:49:03.403Z,99240.88
2022-11-03T05:51:34.829Z,99244.84
2022-11-03T05:54:05.507Z,99243.25
2022-11-03T05:56:36.001Z,99239.28
2022-11-03T05:59:05.270Z,99243.16
2022-11-03T06:01:38.166Z,99243.19
2022-11-03T06:04:19.481Z,99253.38
2022-11-03T06:06:53.838Z,99242.34
2022-11-03T06:09:24.408Z,99240.84
2022-11-03T06:11:53.078Z,99238.63
2022-11-03T06:14:24.364Z,99239.41
2022-11-03T06:16:57.754Z,99241.97
2022-11-03T06:19:29.816Z,99239.53
2022-11-03T06:22:00.152Z,99237.59
2022-11-03T06:24:32.045Z,99247.19
2022-11-03T06:26:59.960Z,99240.41
2022-11-03T06:29:28.031Z,99250.66
2022-11-03T06:31:58.187Z,99236.53
2022-11-03T06:34:39.143Z,99236.53
2022-11-03T06:37:17.264Z,99233.38
2022-11-03T06:39:45.158Z,99220.41
2022-11-03T06:42:14.965Z,99218.25
2022-11-03T06:44:45.057Z,99216.09
2022-11-03T06:47:24.244Z,99214.94
2022-11-03T06:49:53.872Z,99210.16
2022-11-03T06:52:27.495Z,99216.47
2022-11-03T06:55:01.692Z,99207.50
2022-11-03T06:57:35.387Z,99215.50
2022-11-03T07:00:34.669Z,99194.13
2022-11-03T07:02:59.395Z,99199.25
2022-11-03T07:05:29.320Z,99203.59
2022-11-03T07:07:59.955Z,99186.31
2022-11-03T07:10:29.466Z,99185.13
2022-11-03T07:12:58.567Z,99178.06
2022-11-03T07:15:32.110Z,99168.19
2022-11-03T07:18:03.547Z,99164.63
2022-11-03T07:20:31.585Z,99163.84
2022-11-03T07:23:02.838Z,99159.47
2022-11-03T07:25:32.738Z,99159.84
2022-11-03T07:28:04.595Z,99163.81
2022-11-03T07:30:36.085Z,99154.69
2022-11-03T07:33:15.275Z,99151.09
2022-11-03T07:36:13.941Z,99147.91
2022-11-03T07:38:34.773Z,99154.06
2022-11-03T07:41:02.633Z,99146.13
2022-11-03T07:43:34.850Z,99151.09
2022-11-03T07:46:03.614Z,99141.09
2022-11-03T07:48:37.543Z,99139.75
2022-11-03T07:51:17.133Z,99134.03
2022-11-03T07:53:47.479Z,99134.53
2022-11-03T07:56:20.827Z,99123.44
2022-11-03T07:58:52.209Z,99124.78
2022-11-03T08:01:32.253Z,99118.28
2022-11-03T08:04:04.495Z,99107.47
2022-11-03T08:06:32.323Z,99099.19
2022-11-03T08:09:00.456Z,99095.78
2022-11-03T08:11:29.654Z,99098.19
2022-11-03T08:13:58.419Z,99103.06
2022-11-03T08:16:26.413Z,99094.25
2022-11-03T08:18:54.287Z,99095.50
2022-11-03T08:21:23.527Z,99090.13
2022-11-03T08:23:52.009Z,99091.66
2022-11-03T08:26:19.832Z,99083.34
2022-11-03T08:28:47.896Z,99073.53
2022-11-03T08:31:16.024Z,99075.44
2022-11-03T08:33:43.830Z,99064.03
2022-11-03T08:36:11.953Z,99056.00
2022-11-03T08:38:41.258Z,99054.34
2022-11-03T08:41:10.201Z,99051.06
2022-11-03T08:43:38.168Z,99044.66
2022-11-03T08:46:15.910Z,99039.91
2022-11-03T08:48:45.618Z,99022.63
2022-11-03T08:51:14.570Z,99018.53
2022-11-03T08:53:44.320Z,99015.13
2022-11-03T08:56:14.342Z,99020.66
2022-11-03T08:58:43.035Z,99014.72
2022-11-03T09:01:11.179Z,99006.06
2022-11-03T09:03:39.288Z,99004.69
2022-11-03T09:06:08.020Z,99005.31
2022-11-03T09:11:24.961Z,99008.81
2022-11-03T09:13:52.998Z,99001.97
2022-11-03T09:16:20.775Z,98995.78
2022-11-03T09:18:48.582Z,98996.91
2022-11-03T09:21:16.394Z,98990.09
2022-11-03T09:23:44.190Z,98989.63
2022-11-03T09:26:11.979Z,98983.81
2022-11-03T09:28:41.268Z,98974.81
2022-11-03T09:31:09.097Z,98976.34
2022-11-03T09:33:36.997Z,98971.09
2022-11-03T09:36:04.917Z,98960.88
2022-11-03T09:38:32.767Z,98941.53
2022-11-03T09:41:00.985Z,98926.25
2022-11-03T09:43:28.781Z,98927.13
2022-11-03T09:45:58.305Z,98922.84
2022-11-03T09:48:27.036Z,98924.28
2022-11-03T09:50:55.789Z,98915.41
2022-11-03T09:53:23.632Z,98915.41
2022-11-03T09:55:51.502Z,98916.50
2022-11-03T09:58:19.818Z,98914.28
2022-11-03T10:00:47.955Z,98905.00
2022-11-03T10:03:20.369Z,98902.22
2022-11-03T10:05:49.062Z,98909.56
2022-11-03T10:08:24.071Z,98915.03
2022-11-03T10:10:52.301Z,98912.97
2022-11-03T10:13:26.449Z,98914.03
2022-11-03T10:15:54.456Z,98911.94
2022-11-03T10:18:23.854Z,98912.78
2022-11-03T10:20:51.651Z,98903.84
2022-11-03T10:23:19.468Z,98905.91
2022-11-03T10:25:47.951Z,98900.91
2022-11-03T10:28:21.374Z,98893.22
2022-11-03T10:31:10.525Z,98887.44
2022-11-03T10:33:41.861Z,98882.38
2022-11-03T10:36:25.153Z,98877.59
2022-11-03T10:38:53.571Z,98868.63
2022-11-03T10:41:22.968Z,98863.06
2022-11-03T10:44:02.299Z,98860.22
2022-11-03T10:46:51.306Z,98854.22
2022-11-03T10:49:21.501Z,98860.66
2022-11-03T10:51:51.471Z,98839.88
2022-11-03T10:54:21.966Z,98835.03
2022-11-03T10:56:50.902Z,98838.03
2022-11-03T10:59:21.661Z,98842.25
2022-11-03T11:01:49.557Z,98827.69
2022-11-03T11:04:20.980Z,98829.75
2022-11-03T11:06:49.510Z,98823.66
2022-11-03T11:09:22.696Z,98813.31
2022-11-03T11:12:36.915Z,98800.50
2022-11-03T11:15:23.106Z,98799.22
2022-11-03T11:17:51.086Z,98792.06
2022-11-03T11:20:35.096Z,98787.22
2022-11-03T11:23:49.200Z,98772.38
2022-11-03T11:26:31.110Z,98778.00
2022-11-03T11:29:43.993Z,98776.59
2022-11-03T11:32:47.675Z,98772.38
2022-11-03T11:35:19.888Z,98767.19
2022-11-03T11:37:49.315Z,98773.47
2022-11-03T11:40:53.357Z,98769.88
2022-11-03T11:43:28.224Z,98766.59
2022-11-03T11:46:33.222Z,98753.91
2022-11-03T11:49:18.359Z,98745.47
2022-11-03T11:51:46.745Z,98736.13
2022-11-03T11:54:19.058Z,98742.66
2022-11-03T11:56:49.779Z,98729.22
2022-11-03T11:59:25.077Z,98728.88
2022-11-03T12:01:55.936Z,98717.16
2022-11-03T12:04:26.230Z,98708.91
2022-11-03T12:06:55.466Z,98697.75
2022-11-03T12:09:28.020Z,98683.88
2022-11-03T12:12:00.543Z,98687.97
2022-11-03T12:14:35.151Z,98680.06
2022-11-03T12:17:34.152Z,98682.47
2022-11-03T12:20:01.952Z,98671.06
2022-11-03T12:22:43.538Z,98663.72
2022-11-03T12:25:40.099Z,98660.38
2022-11-03T12:28:08.104Z,98657.28
2022-11-03T12:30:40.010Z,98659.28
2022-11-03T12:33:08.850Z,98658.81
2022-11-03T12:35:37.107Z,98659.13
2022-11-03T12:38:04.908Z,98663.94
2022-11-03T12:40:32.689Z,98655.53
2022-11-03T12:43:01.830Z,98641.97
2022-11-03T12:45:29.621Z,98635.25
2022-11-03T12:47:57.460Z,98627.13
2022-11-03T12:50:25.239Z,98629.00
2022-11-03T12:52:52.999Z,98631.97
2022-11-03T12:55:20.901Z,98633.84
2022-11-03T12:57:48.783Z,98632.28
2022-11-03T13:00:18.644Z,98627.09
2022-11-03T13:02:46.582Z,98623.19
2022-11-03T13:05:15.469Z,98617.16
2022-11-03T13:07:43.470Z,98612.44
2022-11-03T13:10:11.710Z,98611.13
2022-11-03T13:12:41.486Z,98610.53
2022-11-03T13:15:13.433Z,98607.78
2022-11-03T13:18:07.587Z,98601.78
2022-11-03T13:20:31.442Z,98593.66
2022-11-03T13:22:59.359Z,98581.06
2022-11-03T13:25:28.818Z,98572.47
2022-11-03T13:27:57.085Z,98563.41
2022-11-03T13:30:26.810Z,98549.66
2022-11-03T13:32:55.978Z,98550.75
2022-11-03T13:35:24.077Z,98548.69
2022-11-03T13:37:52.102Z,98549.91
2022-11-03T13:40:55.466Z,98543.25
2022-11-03T13:43:08.933Z,98535.69
2022-11-03T13:45:36.961Z,98522.88
2022-11-03T13:50:54.315Z,98521.69
2022-11-03T13:56:12.878Z,98523.00
2022-11-03T14:01:33.639Z,98514.00
2022-11-03T14:06:50.914Z,98503.66
2022-11-03T14:09:19.060Z,98502.84
2022-11-03T14:12:04.327Z,98493.75
2022-11-03T14:14:32.844Z,98491.84
2022-11-03T14:17:00.752Z,98490.72
2022-11-03T14:19:37.958Z,98487.78
2022-11-03T14:22:09.622Z,98490.56
2022-11-03T14:24:37.483Z,98476.63
2022-11-03T14:27:05.493Z,98480.97
2022-11-03T14:29:33.412Z,98473.03
2022-11-03T14:32:01.330Z,98471.44
2022-11-03T14:34:30.864Z,98464.72
2022-11-03T14:36:58.896Z,98465.56
2022-11-03T14:39:26.889Z,98471.13
2022-11-03T14:42:05.851Z,98456.06
2022-11-03T14:44:34.847Z,98436.75
2022-11-03T14:47:03.873Z,98448.22
2022-11-03T14:49:34.289Z,98438.91
2022-11-03T14:52:03.346Z,98424.13
2022-11-03T14:54:32.410Z,98412.34
2022-11-03T14:57:00.522Z,98420.44
2022-11-03T14:59:28.447Z,98412.19
2022-11-03T15:01:56.711Z,98413.47
2022-11-03T15:04:25.073Z,98410.59
2022-11-03T15:06:54.445Z,98395.34
2022-11-03T15:09:22.331Z,98381.06
2022-11-03T15:11:50.351Z,98381.63
2022-11-03T15:14:18.123Z,98385.53
2022-11-03T15:16:46.272Z,98379.88
2022-11-03T15:19:14.142Z,98373.34
2022-11-03T15:21:42.291Z,98370.03
2022-11-03T15:26:59.469Z,98350.41
2022-11-03T15:29:27.270Z,98352.09
2022-11-03T15:31:55.102Z,98346.94
2022-11-03T15:34:22.877Z,98342.22
2022-11-03T15:36:50.703Z,98336.09
2022-11-03T15:39:19.979Z,98342.94
2022-11-03T15:41:47.924Z,98332.22
2022-11-03T15:44:15.748Z,98332.56
2022-11-03T15:46:43.620Z,98326.19
2022-11-03T15:49:11.571Z,98316.78
2022-11-03T15:51:39.898Z,98320.03
2022-11-03T15:54:08.206Z,98314.72
2022-11-03T15:56:37.386Z,98302.44
2022-11-03T15:59:05.180Z,98292.47
2022-11-03T16:01:33.144Z,98292.53
2022-11-03T16:04:01.162Z,98299.16
2022-11-03T16:06:53.861Z,98303.56
2022-11-03T16:09:17.291Z,98292.06
2022-11-03T16:11:46.514Z,98277.75
2022-11-03T16:14:15.028Z,98275.25
2022-11-03T16:16:42.891Z,98270.66
2022-11-03T16:19:11.039Z,98269.56
2022-11-03T16:21:38.959Z,98271.47
2022-11-03T16:24:07.267Z,98260.97
2022-11-03T16:26:35.193Z,98270.63
2022-11-03T16:29:04.562Z,98271.25
2022-11-03T16:31:32.665Z,98263.00
2022-11-03T16:34:00.531Z,98260.91
2022-11-03T16:36:28.340Z,98259.28
2022-11-03T16:38:56.300Z,98249.88
2022-11-03T16:41:24.085Z,98247.13
2022-11-03T16:43:51.969Z,98247.59
2022-11-03T16:46:21.299Z,98240.63
2022-11-03T16:48:49.243Z,98239.09
2022-11-03T16:51:17.138Z,98235.38
2022-11-03T16:53:45.018Z,98225.50
2022-11-03T16:56:12.808Z,98215.69
2022-11-03T16:58:40.995Z,98209.50
2022-11-03T17:01:09.183Z,98215.78
2022-11-03T17:03:38.683Z,98206.75
2022-11-03T17:06:06.823Z,98199.28
2022-11-03T17:11:36.528Z,98191.34
2022-11-03T17:14:05.989Z,98190.91
2022-11-03T17:16:33.992Z,98189.81
2022-11-03T17:19:03.254Z,98180.94
2022-11-03T17:21:31.194Z,98187.59
2022-11-03T17:23:59.992Z,98194.09
2022-11-03T17:26:38.925Z,98192.31
2022-11-03T17:29:15.733Z,98185.03
2022-11-03T17:31:43.607Z,98180.53
2022-11-03T17:34:14.059Z,98172.94
2022-11-03T17:36:41.790Z,98165.50
2022-11-03T17:39:13.833Z,98160.19
2022-11-03T17:41:41.661Z,98153.03
2022-11-03T17:44:11.920Z,98148.22
2022-11-03T17:46:39.793Z,98131.97
2022-11-03T17:49:07.642Z,98115.34
2022-11-03T17:51:41.396Z,98115.84
2022-11-03T17:54:10.199Z,98120.59
2022-11-03T17:56:38.076Z,98110.66
2022-11-03T17:59:06.291Z,98098.56
2022-11-03T18:01:34.307Z,98094.25
2022-11-03T18:04:02.811Z,98089.47
2022-11-03T18:06:30.852Z,98090.88
2022-11-03T18:09:00.447Z,98091.50
2022-11-03T18:11:48.789Z,98099.25
2022-11-03T18:14:17.046Z,98095.56
2022-11-03T18:16:45.078Z,98093.38
2022-11-03T18:19:15.238Z,98079.84
2022-11-03T18:21:43.903Z,98058.94
2022-11-03T18:24:15.622Z,98056.59
2022-11-03T18:26:43.919Z,98066.34
2022-11-03T18:29:11.933Z,98060.41
2022-11-03T18:31:42.282Z,98056.97
2022-11-03T18:34:15.895Z,98037.78
2022-11-03T18:36:44.477Z,98026.44
2022-11-03T18:39:18.333Z,98056.19
2022-11-03T18:41:46.399Z,98058.13
2022-11-03T18:44:18.628Z,98053.41
2022-11-03T18:46:46.681Z,98044.69
2022-11-03T18:49:14.633Z,98041.97
2022-11-03T18:51:46.341Z,98059.31
2022-11-03T18:54:20.678Z,98080.28
2022-11-03T18:56:49.198Z,98106.38
2022-11-03T18:59:22.150Z,98078.50
2022-11-03T19:01:50.242Z,98074.38
2022-11-03T19:04:18.486Z,98067.00
2022-11-03T19:06:48.405Z,98064.03
2022-11-03T19:09:20.824Z,98070.63
2022-11-03T19:11:50.697Z,98069.06
2022-11-03T19:14:24.258Z,98068.63
2022-11-03T19:19:41.392Z,98058.06
2022-11-03T19:22:13.787Z,98057.47
2022-11-03T19:24:43.131Z,98041.28
2022-11-03T19:27:15.166Z,98041.78
2022-11-03T19:29:43.496Z,98034.63
2022-11-03T19:32:18.796Z,98044.53
2022-11-03T19:34:47.326Z,98026.81
2022-11-03T19:37:15.605Z,98026.81
2022-11-03T19:39:44.839Z,98029.06
2022-11-03T19:42:28.933Z,98017.28
2022-11-03T19:44:58.096Z,98016.09
2022-11-03T19:47:31.602Z,98006.81
2022-11-03T19:50:02.392Z,98003.41
2022-11-03T19:52:31.690Z,97993.16
2022-11-03T19:55:03.124Z,97974.91
2022-11-03T19:57:30.988Z,97966.06
2022-11-03T19:59:59.755Z,97985.09
2022-11-03T20:02:29.143Z,98014.13
2022-11-03T20:04:58.237Z,98036.44
2022-11-03T20:07:31.469Z,98016.69
2022-11-03T20:10:03.306Z,98000.38
2022-11-03T20:12:32.142Z,98015.28
2022-11-03T20:14:59.995Z,98010.81
2022-11-03T20:17:27.852Z,98021.16
2022-11-03T20:19:55.742Z,98029.25
2022-11-03T20:22:29.662Z,98026.47
2022-11-03T20:25:02.951Z,98005.38
2022-11-03T20:27:33.487Z,98019.34
2022-11-03T20:30:02.099Z,98017.78
2022-11-03T20:32:29.888Z,98024.16
2022-11-03T20:34:57.706Z,98002.59
2022-11-03T20:37:25.520Z,97995.97
2022-11-03T20:39:54.291Z,97998.63
2022-11-03T20:42:24.512Z,97990.56
2022-11-03T20:44:53.968Z,97990.38
2022-11-03T20:47:22.096Z,97987.63
2022-11-03T20:49:49.967Z,97953.41
2022-11-03T20:52:17.978Z,97946.09
2022-11-03T20:54:45.786Z,97936.19
2022-11-03T20:57:14.399Z,97923.03
2022-11-03T20:59:42.563Z,97918.84
2022-11-03T21:02:13.733Z,97925.34
2022-11-03T21:04:43.272Z,97924.81
2022-11-03T21:07:13.701Z,97943.81
2022-11-03T21:09:41.972Z,97924.16
2022-11-03T21:12:13.223Z,97956.34
2022-11-03T21:15:04.027Z,97938.56
2022-11-03T21:17:50.475Z,97945.75
2022-11-03T21:20:18.346Z,97926.38
2022-11-03T21:22:54.437Z,97922.06
2022-11-03T21:25:24.648Z,97939.47
2022-11-03T21:27:53.771Z,97987.56
2022-11-03T21:30:25.000Z,97946.09
2022-11-03T21:32:54.289Z,97950.41
2022-11-03T21:35:23.598Z,97971.97
2022-11-03T21:37:51.458Z,97967.31
2022-11-03T21:40:19.308Z,97951.84
2022-11-03T21:43:04.788Z,97952.63
2022-11-03T21:45:33.204Z,97958.19
2022-11-03T21:48:20.961Z,97957.66
2022-11-03T21:50:49.237Z,97955.88
2022-11-03T21:53:17.127Z,97950.84
2022-11-03T21:55:47.504Z,97949.91
2022-11-03T21:58:15.664Z,97954.25
2022-11-03T22:00:43.550Z,97956.78
2022-11-03T22:03:12.824Z,97942.53
2022-11-03T22:05:42.390Z,97953.63
2022-11-03T22:08:10.413Z,97961.94
2022-11-03T22:10:39.873Z,97961.53
2022-11-03T22:13:07.995Z,97964.66
2022-11-03T22:15:53.335Z,97955.03
2022-11-03T22:18:22.547Z,97967.13
2022-11-03T22:21:07.913Z,97962.81
2022-11-03T22:24:07.661Z,97962.50
2022-11-03T22:26:53.489Z,97967.75
2022-11-03T22:29:38.862Z,97968.19
2022-11-03T22:32:14.147Z,97962.91
2022-11-03T22:35:00.747Z,97957.44
2022-11-03T22:40:14.046Z,97936.94
2022-11-03T22:42:59.289Z,97937.78
2022-11-03T22:45:44.645Z,97943.22
2022-11-03T22:48:12.772Z,97944.28
2022-11-03T22:50:42.032Z,97935.34
2022-11-03T22:53:27.402Z,97934.72
2022-11-03T22:55:57.814Z,97926.03
2022-11-03T22:58:30.254Z,97918.16
2022-11-03T23:00:58.820Z,97913.13
2022-11-03T23:03:33.302Z,97908.88
2022-11-03T23:06:10.397Z,97908.16
2022-11-03T23:08:39.973Z,97914.03
2022-11-03T23:11:15.945Z,97910.03
2022-11-03T23:13:45.907Z,97914.03
2022-11-03T23:16:15.528Z,97911.25
2022-11-03T23:19:01.386Z,97906.41
2022-11-03T23:21:33.185Z,97905.53
2022-11-03T23:24:18.662Z,97914.34
2022-11-03T23:26:49.479Z,97904.09
2022-11-03T23:29:17.923Z,97904.88
2022-11-03T23:31:52.176Z,97901.41
2022-11-03T23:34:20.113Z,97913.25
2022-11-03T23:36:49.394Z,97923.16
2022-11-03T23:39:19.156Z,97928.84
2022-11-03T23:41:47.754Z,97942.34
2022-11-03T23:44:17.135Z,97955.75
2022-11-03T23:47:03.041Z,97975.47
2022-11-03T23:49:31.037Z,97972.13
2022-11-03T23:52:00.316Z,97986.13
2022-11-03T23:54:28.406Z,97996.63
2022-11-03T23:57:10.111Z,98017.00
2022-11-03T23:59:37.922Z,98007.88
